Observations for ABERDEEN DYCE, United Kingdom (EGPD)

EGPD 260450Z 15003KT 9999 VCFG NSC 13/12 Q1015 NOSIG
EGPD 260420Z AUTO VRB01KT 8000 NCD 13/12 Q1015 NOSIG
EGPD 260350Z AUTO VRB04KT 6000 NCD 13/12 Q1015 NOSIG
EGPD 260320Z AUTO 15005KT 5000 HZ NCD 12/11 Q1015 TEMPO 3000 BR 
EGPD 260250Z AUTO 15006KT 8000 NCD 13/12 Q1015 NOSIG
EGPD 260220Z AUTO 17004KT 8000 NCD 13/12 Q1015 NOSIG
EGPD 260150Z AUTO 15003KT 9999 NCD 15/13 Q1015 NOSIG
EGPD 260120Z AUTO 15004KT 9999 NCD 15/13 Q1015 NOSIG
EGPD 260050Z AUTO 16004KT 9000 NCD 15/13 Q1016 BECMG 4000 BR
EGPD 260020Z AUTO 16004KT 9999 NCD 15/12 Q1016 NOSIG
EGPD 252350Z AUTO 14005KT 9999 NCD 16/13 Q1016 NOSIG
EGPD 252320Z AUTO 14009KT 9999 NCD 16/13 Q1016 NOSIG
EGPD 252250Z AUTO 14005KT 9999 NCD 16/13 Q1017 NOSIG
EGPD 252220Z AUTO 12004KT 9999 NCD 17/12 Q1017 NOSIG
EGPD 252150Z AUTO 12004KT 080V190 9999 NCD 17/12 Q1017 NOSIG
EGPD 252120Z AUTO 15007KT 9999 NCD 18/13 Q1017 NOSIG
EGPD 252050Z AUTO 16007KT 9999 NCD 17/13 Q1018 NOSIG
EGPD 252020Z AUTO 15005KT 9999 NCD 17/13 Q1018 NOSIG
EGPD 251950Z AUTO 14006KT 9999 NCD 17/13 Q1018 NOSIG
EGPD 251920Z AUTO 14006KT 9999 NCD 18/13 Q1017 NOSIG
EGPD 251850Z AUTO 15006KT 9999 NCD 19/13 Q1017 NOSIG
EGPD 251820Z AUTO 14007KT 9999 NCD 20/13 Q1017 NOSIG
EGPD 251750Z AUTO 14009KT 9999 NCD 21/14 Q1017 NOSIG
EGPD 251720Z AUTO 16011KT 9999 NCD 21/14 Q1017 NOSIG
EGPD 251650Z 16010KT CAVOK 22/14 Q1017 NOSIG
EGPD 251620Z AUTO 17012KT 9999 NCD 22/15 Q1018 NOSIG
EGPD 251550Z AUTO 16012KT 9999 NCD 22/14 Q1018 NOSIG
EGPD 251520Z AUTO 17013KT 9999 NCD 23/14 Q1018 NOSIG
EGPD 251450Z AUTO 16015KT 9999 NCD 23/14 Q1018 NOSIG
EGPD 251420Z 17014KT CAVOK 24/14 Q1018 NOSIG
EGPD 251350Z 16014KT CAVOK 24/14 Q1018 NOSIG
EGPD 251320Z 16011KT CAVOK 24/14 Q1018 NOSIG
EGPD 251250Z AUTO 14008KT 110V170 9999 NCD 23/14 Q1018 NOSIG
EGPD 251220Z AUTO 12008KT 9999 NCD 23/14 Q1018 NOSIG
EGPD 251150Z AUTO 12007KT 9999 NCD 23/15 Q1019 NOSIG
EGPD 251120Z AUTO 13007KT 9999 NCD 22/16 Q1019 NOSIG
EGPD 251050Z AUTO 12008KT 9999 NCD 21/16 Q1019 NOSIG
EGPD 251020Z AUTO 12005KT 080V160 9999 NCD 22/15 Q1019 NOSIG
EGPD 250950Z AUTO VRB03KT 9999 NCD 21/16 Q1019 NOSIG
EGPD 250920Z AUTO VRB02KT 9999 NCD 20/15 Q1019 NOSIG
EGPD 250850Z AUTO VRB01KT 9999 NCD 18/15 Q1019 NOSIG
EGPD 250820Z VRB01KT CAVOK 16/13 Q1019 NOSIG
EGPD 250750Z VRB02KT 9000 3000NE VCFG NSC 14/13 Q1019 BECMG CAVOK   
EGPD 250720Z 36005KT 6000 0700NE R34/P1500 PRFG NSC 13/12 Q1019 BECMG CAVOK 
EGPD 250650Z 01003KT 9000 3000E VCFG NSC 13/12 Q1019 BECMG CAVOK
EGPD 250620Z VRB02KT 5000 0500E R34/1400 BR NSC 12/11 Q1019 BECMG CAVOK 
EGPD 250550Z 16002KT 0150 R34/0125 FG VV/// 10/10 Q1019 BECMG CAVOK 
EGPD 250520Z VRB03KT 0100 R34/1400 FG VV/// 10/10 Q1018 BECMG CAVOK 
EGPD 250520Z AUTO 03003KT 0200 R34/P1500 FG BKN001 10/10 Q1018 BECMG CAVOK
EGPD 250450Z AUTO 26002KT 1700 R34/1200 BR FEW001 SCT005 11/10 Q1018 BECMG CAVOK
EGPD 250420Z AUTO 06002KT 1500 BR FEW006 11/10 Q1018 TEMPO 0300 FG